createdAt,value
2019-05-19T00:00:40.837Z,96764.58
2019-05-19T00:03:11.130Z,96761.16
2019-05-19T00:05:42.437Z,96760.55
2019-05-19T00:08:13.985Z,96765.31
2019-05-19T00:10:45.256Z,96766.86
2019-05-19T00:13:16.227Z,96764.45
2019-05-19T00:15:47.459Z,96770.02
2019-05-19T00:18:18.433Z,96770.78
2019-05-19T00:20:49.661Z,96774.14
2019-05-19T00:23:20.571Z,96774.73
2019-05-19T00:25:51.658Z,96772.89
2019-05-19T00:28:22.588Z,96768.06
2019-05-19T00:30:53.634Z,96770.21
2019-05-19T00:33:24.914Z,96768.83
2019-05-19T00:35:55.029Z,96763.09
2019-05-19T00:38:26.248Z,96767.52
2019-05-19T00:40:57.331Z,96764.32
2019-05-19T00:43:28.611Z,96757.61
2019-05-19T00:45:59.760Z,96761.29
2019-05-19T00:48:31.009Z,96762.27
2019-05-19T00:51:02.125Z,96763.80
2019-05-19T00:53:33.464Z,96764.87
2019-05-19T00:56:04.484Z,96759.69
2019-05-19T00:58:35.997Z,96758.42
2019-05-19T01:01:06.954Z,96754.33
2019-05-19T01:03:38.227Z,96750.35
2019-05-19T01:06:09.431Z,96751.22
2019-05-19T01:08:39.663Z,96751.53
2019-05-19T01:11:10.901Z,96744.45
2019-05-19T01:13:41.942Z,96745.60
2019-05-19T01:16:13.228Z,96740.86
2019-05-19T01:18:44.168Z,96738.34
2019-05-19T01:21:16.271Z,96743.06
2019-05-19T01:23:47.253Z,96738.63
2019-05-19T01:26:18.319Z,96736.67
2019-05-19T01:28:49.377Z,96739.20
2019-05-19T01:31:20.676Z,96744.14
2019-05-19T01:33:51.578Z,96738.64
2019-05-19T01:36:22.989Z,96739.87
2019-05-19T01:38:53.977Z,96738.59
2019-05-19T01:41:25.309Z,96744.28
2019-05-19T01:43:56.369Z,96750.10
2019-05-19T01:46:26.472Z,96745.00
2019-05-19T01:48:57.855Z,96749.38
2019-05-19T01:51:28.755Z,96743.64
2019-05-19T01:53:59.835Z,96731.46
2019-05-19T01:56:30.885Z,96733.05
2019-05-19T01:59:02.145Z,96726.63
2019-05-19T02:01:33.143Z,96728.11
2019-05-19T02:04:04.538Z,96729.70
2019-05-19T02:06:35.494Z,96736.10
2019-05-19T02:09:07.541Z,96730.81
2019-05-19T02:11:38.508Z,96734.73
2019-05-19T02:14:09.756Z,96734.18
2019-05-19T02:16:40.734Z,96735.56
2019-05-19T02:19:10.928Z,96738.05
2019-05-19T02:21:42.032Z,96738.25
2019-05-19T02:24:13.064Z,96736.38
2019-05-19T02:26:44.209Z,96741.19
2019-05-19T02:29:15.192Z,96740.93
2019-05-19T02:31:46.369Z,96739.05
2019-05-19T02:34:17.421Z,96736.45
2019-05-19T02:36:48.582Z,96741.93
2019-05-19T02:39:19.641Z,96744.31
2019-05-19T02:41:52.590Z,96743.94
2019-05-19T02:44:24.883Z,96751.39
2019-05-19T02:46:57.083Z,96744.77
2019-05-19T02:49:30.486Z,96742.53
2019-05-19T02:52:03.427Z,96747.25
2019-05-19T02:54:35.741Z,96744.36
2019-05-19T02:57:06.870Z,96744.64
2019-05-19T02:59:38.386Z,96748.25
2019-05-19T03:02:13.773Z,96745.95
2019-05-19T03:04:44.826Z,96748.34
2019-05-19T03:07:15.771Z,96747.10
2019-05-19T03:09:46.935Z,96747.30
2019-05-19T03:12:17.978Z,96748.78
2019-05-19T03:14:49.161Z,96752.11
2019-05-19T03:17:20.130Z,96751.44
2019-05-19T03:19:51.290Z,96748.73
2019-05-19T03:22:22.213Z,96749.88
2019-05-19T03:24:52.353Z,96749.76
2019-05-19T03:27:23.480Z,96753.11
2019-05-19T03:29:56.161Z,96753.41
2019-05-19T03:32:37.742Z,96755.33
2019-05-19T03:35:09.282Z,96747.98
2019-05-19T03:37:40.506Z,96748.90
2019-05-19T03:40:13.221Z,96746.76
2019-05-19T03:42:44.455Z,96748.66
2019-05-19T03:45:15.428Z,96751.06
2019-05-19T03:47:46.751Z,96750.35
2019-05-19T03:50:17.724Z,96752.88
2019-05-19T03:52:48.973Z,96750.38
2019-05-19T03:55:19.937Z,96750.02
2019-05-19T03:57:51.088Z,96751.41
2019-05-19T04:00:22.321Z,96754.98
2019-05-19T04:02:52.377Z,96755.75
2019-05-19T04:05:23.528Z,96758.28
2019-05-19T04:07:54.512Z,96761.27
2019-05-19T04:10:26.237Z,96765.35
2019-05-19T04:12:57.101Z,96760.23
2019-05-19T04:15:28.456Z,96762.88
2019-05-19T04:17:59.352Z,96760.45
2019-05-19T04:20:30.532Z,96761.11
2019-05-19T04:23:01.435Z,96763.97
2019-05-19T04:25:32.781Z,96763.42
2019-05-19T04:28:03.884Z,96763.91
2019-05-19T04:30:34.947Z,96763.98
2019-05-19T04:33:05.837Z,96769.73
2019-05-19T04:35:35.976Z,96773.06
2019-05-19T04:38:07.125Z,96770.68
2019-05-19T04:40:38.039Z,96770.28
2019-05-19T04:43:09.354Z,96776.31
2019-05-19T04:45:40.350Z,96776.51
2019-05-19T04:48:11.574Z,96774.16
2019-05-19T04:50:42.543Z,96774.79
2019-05-19T04:53:13.633Z,96776.25
2019-05-19T04:55:44.603Z,96778.03
2019-05-19T04:58:15.857Z,96783.95
2019-05-19T05:00:46.825Z,96780.09
2019-05-19T05:03:17.978Z,96779.92
2019-05-19T05:05:48.949Z,96776.06
2019-05-19T05:08:29.532Z,96780.74
2019-05-19T05:10:51.807Z,96773.34
2019-05-19T05:13:22.732Z,96771.83
2019-05-19T05:15:53.794Z,96773.17
2019-05-19T05:18:24.798Z,96775.34
2019-05-19T05:20:56.035Z,96765.67
2019-05-19T05:23:27.014Z,96770.52
2019-05-19T05:25:58.187Z,96774.66
2019-05-19T05:28:29.181Z,96762.96
2019-05-19T05:31:00.415Z,96764.18
2019-05-19T05:33:31.326Z,96765.30
2019-05-19T05:36:02.581Z,96765.94
2019-05-19T05:38:33.539Z,96771.30
2019-05-19T05:41:03.691Z,96768.86
2019-05-19T05:43:34.888Z,96762.98
2019-05-19T05:46:05.879Z,96758.74
2019-05-19T05:48:37.210Z,96762.57
2019-05-19T05:51:08.277Z,96761.19
2019-05-19T05:53:39.546Z,96763.02
2019-05-19T05:56:10.634Z,96760.88
2019-05-19T05:58:41.780Z,96759.17
2019-05-19T06:01:12.752Z,96756.93
2019-05-19T06:03:44.140Z,96760.31
2019-05-19T06:06:15.174Z,96751.06
2019-05-19T06:08:46.491Z,96761.77
2019-05-19T06:11:17.473Z,96760.92
2019-05-19T06:13:49.547Z,96764.19
2019-05-19T06:16:20.395Z,96764.78
2019-05-19T06:18:51.446Z,96775.02
2019-05-19T06:21:23.824Z,96770.88
2019-05-19T06:23:54.709Z,96768.45
2019-05-19T06:26:25.887Z,96770.58
2019-05-19T06:28:56.787Z,96770.50
2019-05-19T06:31:28.055Z,96772.57
2019-05-19T06:33:59.052Z,96774.44
2019-05-19T06:36:30.341Z,96772.41
2019-05-19T06:39:01.491Z,96765.17
2019-05-19T06:41:32.581Z,96757.44
2019-05-19T06:44:03.773Z,96761.24
2019-05-19T06:46:33.945Z,96766.66
2019-05-19T06:49:05.108Z,96759.26
2019-05-19T06:51:36.039Z,96763.80
2019-05-19T06:54:07.371Z,96763.79
2019-05-19T06:56:39.780Z,96758.46
2019-05-19T06:59:11.037Z,96763.13
2019-05-19T07:01:42.096Z,96761.56
2019-05-19T07:04:13.323Z,96756.58
2019-05-19T07:06:45.001Z,96753.34
2019-05-19T07:09:16.465Z,96755.77
2019-05-19T07:11:47.449Z,96742.35
2019-05-19T07:14:18.714Z,96753.68
2019-05-19T07:16:49.739Z,96750.41
2019-05-19T07:19:19.821Z,96741.24
2019-05-19T07:21:51.031Z,96741.12
2019-05-19T07:24:22.056Z,96734.37
2019-05-19T07:26:53.130Z,96730.09
2019-05-19T07:29:24.220Z,96728.05
2019-05-19T07:31:55.535Z,96727.89
2019-05-19T07:34:26.523Z,96734.70
2019-05-19T07:36:57.719Z,96725.13
2019-05-19T07:39:28.722Z,96730.28
2019-05-19T07:41:59.815Z,96720.16
2019-05-19T07:44:30.794Z,96721.69
2019-05-19T07:47:01.960Z,96722.21
2019-05-19T07:49:33.031Z,96717.89
2019-05-19T07:52:03.208Z,96716.37
2019-05-19T07:54:34.287Z,96715.81
2019-05-19T07:57:08.375Z,96717.14
2019-05-19T07:59:39.454Z,96711.20
2019-05-19T08:02:10.621Z,96714.52
2019-05-19T08:04:41.969Z,96713.53
2019-05-19T08:07:12.937Z,96712.38
2019-05-19T08:09:44.021Z,96714.23
2019-05-19T08:12:15.045Z,96708.27
2019-05-19T08:14:46.185Z,96707.55
2019-05-19T08:17:17.150Z,96709.13
2019-05-19T08:19:48.294Z,96706.20
2019-05-19T08:22:19.253Z,96708.16
2019-05-19T08:24:49.340Z,96702.31
2019-05-19T08:27:20.539Z,96703.98
2019-05-19T08:29:51.564Z,96707.60
2019-05-19T08:32:22.859Z,96707.30
2019-05-19T08:34:53.829Z,96704.98
2019-05-19T08:37:24.926Z,96706.53
2019-05-19T08:39:55.896Z,96700.44
2019-05-19T08:42:27.161Z,96693.87
2019-05-19T08:44:58.212Z,96700.86
2019-05-19T08:47:29.558Z,96697.34
2019-05-19T08:50:00.452Z,96694.16
2019-05-19T08:52:31.668Z,96699.69
2019-05-19T08:55:02.732Z,96694.13
2019-05-19T08:57:32.809Z,96700.27
2019-05-19T09:00:05.869Z,96696.17
2019-05-19T09:02:36.910Z,96695.18
2019-05-19T09:05:08.182Z,96692.87
2019-05-19T09:07:39.211Z,96692.73
2019-05-19T09:10:10.890Z,96690.54
2019-05-19T09:12:41.851Z,96685.97
2019-05-19T09:15:13.275Z,96683.49
2019-05-19T09:17:44.158Z,96677.55
2019-05-19T09:20:15.476Z,96679.83
2019-05-19T09:22:48.112Z,96678.23
2019-05-19T09:25:19.359Z,96681.06
2019-05-19T09:27:50.292Z,96678.13
2019-05-19T09:30:20.599Z,96683.97
2019-05-19T09:32:51.838Z,96680.17
2019-05-19T09:35:23.128Z,96679.83
2019-05-19T09:37:54.221Z,96674.06
2019-05-19T09:40:26.802Z,96674.46
2019-05-19T09:42:58.148Z,96673.02
2019-05-19T09:45:30.492Z,96667.97
2019-05-19T09:48:01.798Z,96661.69
2019-05-19T09:50:32.848Z,96664.72
2019-05-19T09:53:04.206Z,96670.30
2019-05-19T09:55:35.262Z,96670.30
2019-05-19T09:58:06.884Z,96666.27
2019-05-19T10:00:38.069Z,96653.13
2019-05-19T10:03:08.434Z,96648.70
2019-05-19T10:05:39.828Z,96653.30
2019-05-19T10:08:10.863Z,96650.93
2019-05-19T10:10:48.310Z,96650.93
2019-05-19T10:13:19.327Z,96654.84
2019-05-19T10:15:50.659Z,96653.33
2019-05-19T10:18:21.679Z,96653.33
2019-05-19T10:20:53.182Z,96649.09
2019-05-19T10:23:24.164Z,96640.38
2019-05-19T10:25:55.479Z,96633.86
2019-05-19T10:28:26.570Z,96633.35
2019-05-19T10:30:58.099Z,96633.35
2019-05-19T10:33:29.118Z,96631.34
2019-05-19T10:36:00.438Z,96634.94
2019-05-19T10:38:31.398Z,96628.91
2019-05-19T10:41:01.541Z,96637.28
2019-05-19T10:43:32.763Z,96632.52
2019-05-19T10:46:03.816Z,96630.39
2019-05-19T10:48:35.051Z,96627.24
2019-05-19T10:51:06.201Z,96633.11
2019-05-19T10:53:37.324Z,96627.86
2019-05-19T10:56:08.555Z,96628.39
2019-05-19T10:58:39.830Z,96632.04
2019-05-19T11:01:10.848Z,96626.23
2019-05-19T11:03:42.076Z,96625.00
2019-05-19T11:06:13.286Z,96619.91
2019-05-19T11:08:44.627Z,96611.91
2019-05-19T11:11:15.648Z,96619.27
2019-05-19T11:13:45.752Z,96615.31
2019-05-19T11:16:17.105Z,96611.97
2019-05-19T11:18:48.251Z,96617.80
2019-05-19T11:21:19.441Z,96612.45
2019-05-19T11:23:50.427Z,96609.74
2019-05-19T11:26:21.662Z,96607.06
2019-05-19T11:28:55.856Z,96609.44
2019-05-19T11:31:27.241Z,96605.88
2019-05-19T11:33:58.410Z,96608.73
2019-05-19T11:36:29.624Z,96600.36
2019-05-19T11:39:00.681Z,96594.96
2019-05-19T11:41:31.989Z,96591.91
2019-05-19T11:44:03.162Z,96592.42
2019-05-19T11:46:33.506Z,96592.19
2019-05-19T11:49:04.760Z,96593.72
2019-05-19T11:51:35.905Z,96596.64
2019-05-19T11:54:07.140Z,96599.28
2019-05-19T11:56:38.292Z,96594.05
2019-05-19T11:59:10.275Z,96593.63
2019-05-19T12:01:41.360Z,96593.73
2019-05-19T12:04:12.534Z,96593.15
2019-05-19T12:06:43.634Z,96583.31
2019-05-19T12:09:14.898Z,96577.14
2019-05-19T12:11:45.926Z,96585.19
2019-05-19T12:14:17.155Z,96596.19
2019-05-19T12:16:48.262Z,96596.19
2019-05-19T12:19:18.386Z,96603.80
2019-05-19T12:21:49.775Z,96603.80
2019-05-19T12:24:20.817Z,96607.80
2019-05-19T12:26:52.219Z,96608.45
2019-05-19T12:29:23.206Z,96608.84
2019-05-19T12:31:54.567Z,96603.55
2019-05-19T12:34:25.689Z,96600.86
2019-05-19T12:36:56.962Z,96598.46
2019-05-19T12:39:28.052Z,96590.75
2019-05-19T12:41:59.534Z,96585.13
2019-05-19T12:44:30.513Z,96592.95
2019-05-19T12:47:01.656Z,96575.77
2019-05-19T12:49:32.640Z,96585.93
2019-05-19T12:52:02.914Z,96569.09
2019-05-19T12:54:34.172Z,96571.20
2019-05-19T12:57:05.264Z,96563.63
2019-05-19T12:59:36.556Z,96559.47
2019-05-19T13:02:07.632Z,96559.47
2019-05-19T13:04:39.931Z,96571.98
2019-05-19T13:07:11.137Z,96573.09
2019-05-19T13:09:42.352Z,96568.42
2019-05-19T13:12:13.592Z,96563.35
2019-05-19T13:14:45.068Z,96562.34
2019-05-19T13:17:16.212Z,96557.87
2019-05-19T13:19:47.548Z,96546.73
2019-05-19T13:22:18.523Z,96550.52
2019-05-19T13:24:48.704Z,96547.81
2019-05-19T13:27:20.009Z,96538.28
2019-05-19T13:29:51.055Z,96544.94
2019-05-19T13:32:22.380Z,96534.86
2019-05-19T13:34:53.455Z,96535.53
2019-05-19T13:37:24.944Z,96533.36
2019-05-19T13:39:56.002Z,96531.22
2019-05-19T13:42:27.238Z,96533.59
2019-05-19T13:44:58.261Z,96527.17
2019-05-19T13:47:29.503Z,96529.11
2019-05-19T13:50:00.564Z,96524.83
2019-05-19T13:52:31.833Z,96517.09
2019-05-19T13:55:02.931Z,96516.86
2019-05-19T13:57:35.735Z,96523.75
2019-05-19T14:00:08.009Z,96510.04
2019-05-19T14:02:39.066Z,96511.74
2019-05-19T14:05:10.439Z,96522.91
2019-05-19T14:07:41.491Z,96521.20
2019-05-19T14:10:13.288Z,96518.81
2019-05-19T14:12:44.342Z,96515.67
2019-05-19T14:15:15.968Z,96509.02
2019-05-19T14:17:47.145Z,96508.05
2019-05-19T14:20:18.374Z,96502.91
2019-05-19T14:22:49.340Z,96490.25
2019-05-19T14:25:20.735Z,96487.98
2019-05-19T14:27:51.741Z,96479.05
2019-05-19T14:30:22.150Z,96483.27
2019-05-19T14:32:53.321Z,96481.50
2019-05-19T14:35:24.516Z,96479.54
2019-05-19T14:37:55.954Z,96476.06
2019-05-19T14:40:27.016Z,96457.97
2019-05-19T14:43:00.112Z,96457.97
2019-05-19T14:45:31.403Z,96460.94
2019-05-19T14:48:02.797Z,96460.94
2019-05-19T14:50:33.838Z,96475.47
2019-05-19T14:53:05.228Z,96477.03
2019-05-19T14:55:36.285Z,96471.50
2019-05-19T14:58:07.663Z,96472.81
2019-05-19T15:00:40.333Z,96466.98
2019-05-19T15:03:10.628Z,96472.01
2019-05-19T15:05:41.963Z,96471.52
2019-05-19T15:08:13.074Z,96469.50
2019-05-19T15:10:44.228Z,96469.95
2019-05-19T15:13:15.198Z,96466.33
2019-05-19T15:15:46.709Z,96464.52
2019-05-19T15:18:17.673Z,96467.23
2019-05-19T15:20:48.929Z,96464.84
2019-05-19T15:23:20.031Z,96464.10
2019-05-19T15:25:51.265Z,96460.98
2019-05-19T15:28:22.355Z,96454.83
2019-05-19T15:30:53.721Z,96449.46
2019-05-19T15:33:24.767Z,96455.39
2019-05-19T15:35:56.107Z,96451.95
2019-05-19T15:38:27.331Z,96447.92
2019-05-19T15:40:57.467Z,96442.70
2019-05-19T15:43:28.710Z,96448.65
2019-05-19T15:45:59.669Z,96442.81
2019-05-19T15:48:30.975Z,96439.03
2019-05-19T15:51:01.966Z,96437.33
2019-05-19T15:53:33.262Z,96435.41
2019-05-19T15:56:04.343Z,96422.63
2019-05-19T15:58:37.673Z,96434.33
2019-05-19T16:01:08.839Z,96425.38
2019-05-19T16:03:40.253Z,96433.63
2019-05-19T16:06:11.348Z,96425.47
2019-05-19T16:08:44.029Z,96430.31
2019-05-19T16:11:15.187Z,96421.05
2019-05-19T16:13:45.429Z,96427.72
2019-05-19T16:16:16.703Z,96429.67
2019-05-19T16:18:47.785Z,96429.52
2019-05-19T16:21:19.178Z,96430.47
2019-05-19T16:23:50.281Z,96436.89
2019-05-19T16:26:21.691Z,96434.30
2019-05-19T16:28:52.757Z,96437.97
2019-05-19T16:31:24.091Z,96435.56
2019-05-19T16:33:55.077Z,96436.81
2019-05-19T16:36:26.432Z,96438.84
2019-05-19T16:38:57.490Z,96439.05
2019-05-19T16:41:28.710Z,96439.05
2019-05-19T16:43:59.818Z,96456.18
2019-05-19T16:46:29.886Z,96456.18
2019-05-19T16:49:04.066Z,96458.53
2019-05-19T16:51:36.502Z,96468.53
2019-05-19T16:54:10.716Z,96468.53
2019-05-19T16:56:41.636Z,96470.17
2019-05-19T16:59:12.870Z,96466.30
2019-05-19T17:01:43.938Z,96463.75
2019-05-19T17:04:17.811Z,96469.00
2019-05-19T17:06:49.010Z,96475.45
2019-05-19T17:09:20.512Z,96488.27
2019-05-19T17:11:51.643Z,96509.39
2019-05-19T17:14:22.876Z,96506.29
2019-05-19T17:16:53.871Z,96495.06
2019-05-19T17:19:24.070Z,96495.70
2019-05-19T17:21:55.443Z,96507.75
2019-05-19T17:24:26.494Z,96498.24
2019-05-19T17:26:57.631Z,96490.75
2019-05-19T17:29:28.594Z,96484.98
2019-05-19T17:32:06.061Z,96475.75
2019-05-19T17:34:32.712Z,96463.29
2019-05-19T17:37:03.950Z,96458.48
2019-05-19T17:39:35.109Z,96449.92
2019-05-19T17:42:06.482Z,96452.81
2019-05-19T17:44:37.427Z,96453.08
2019-05-19T17:47:08.817Z,96442.73
2019-05-19T17:49:39.830Z,96452.36
2019-05-19T17:52:09.954Z,96461.46
2019-05-19T17:54:41.382Z,96469.89
2019-05-19T17:57:22.980Z,96475.83
2019-05-19T17:59:54.570Z,96477.65
2019-05-19T18:02:25.694Z,96474.19
2019-05-19T18:04:56.905Z,96478.00
2019-05-19T18:07:27.868Z,96476.03
2019-05-19T18:09:59.119Z,96480.14
2019-05-19T18:12:30.108Z,96466.58
2019-05-19T18:15:03.354Z,96470.05
2019-05-19T18:17:34.092Z,96458.13
2019-05-19T18:20:07.300Z,96472.49
2019-05-19T18:22:38.449Z,96483.72
2019-05-19T18:25:09.501Z,96497.61
2019-05-19T18:27:43.234Z,96502.41
2019-05-19T18:30:13.768Z,96507.17
2019-05-19T18:32:44.930Z,96518.92
2019-05-19T18:35:15.907Z,96534.27
2019-05-19T18:37:46.984Z,96542.05
2019-05-19T18:40:18.154Z,96555.23
2019-05-19T18:42:49.437Z,96556.37
2019-05-19T18:45:20.796Z,96549.57
2019-05-19T18:47:52.018Z,96567.28
2019-05-19T18:50:23.164Z,96567.15
2019-05-19T18:52:54.477Z,96561.00
2019-05-19T18:55:26.294Z,96559.47
2019-05-19T18:57:57.583Z,96550.13
2019-05-19T19:00:36.902Z,96555.20
2019-05-19T19:03:07.378Z,96548.50
2019-05-19T19:05:38.715Z,96532.87
2019-05-19T19:08:10.164Z,96529.70
2019-05-19T19:10:41.416Z,96538.23
2019-05-19T19:13:13.107Z,96548.39
2019-05-19T19:15:45.160Z,96564.50
2019-05-19T19:18:17.849Z,96584.14
2019-05-19T19:20:52.285Z,96589.59
2019-05-19T19:23:24.619Z,96587.92
2019-05-19T19:25:57.342Z,96593.30
2019-05-19T19:28:33.656Z,96598.37
2019-05-19T19:31:05.113Z,96605.83
2019-05-19T19:33:38.227Z,96605.77
2019-05-19T19:36:10.895Z,96613.04
2019-05-19T19:38:41.870Z,96599.04
2019-05-19T19:41:14.368Z,96599.11
2019-05-19T19:43:48.413Z,96603.27
2019-05-19T19:46:19.557Z,96603.99
2019-05-19T19:48:52.215Z,96605.91
2019-05-19T19:51:23.112Z,96605.10
2019-05-19T19:53:54.316Z,96606.80
2019-05-19T19:56:25.323Z,96610.97
2019-05-19T19:58:56.552Z,96606.41
2019-05-19T20:01:27.445Z,96630.93
2019-05-19T20:03:58.575Z,96641.50
2019-05-19T20:06:29.499Z,96637.70
2019-05-19T20:09:00.739Z,96625.35
2019-05-19T20:11:31.819Z,96626.84
2019-05-19T20:14:02.313Z,96624.28
2019-05-19T20:16:33.796Z,96624.16
2019-05-19T20:21:35.363Z,96620.14
2019-05-19T20:24:06.656Z,96627.04
2019-05-19T20:26:38.398Z,96632.81
2019-05-19T20:29:09.414Z,96633.58
2019-05-19T20:31:40.683Z,96632.17
2019-05-19T20:34:11.985Z,96643.93
2019-05-19T20:36:43.219Z,96642.52
2019-05-19T20:39:14.945Z,96643.48
2019-05-19T20:41:46.170Z,96638.39
2019-05-19T20:44:17.154Z,96628.06
2019-05-19T20:46:49.012Z,96633.34
2019-05-19T20:49:20.361Z,96634.59
2019-05-19T20:51:50.568Z,96642.20
2019-05-19T20:54:21.716Z,96641.16
2019-05-19T20:56:54.262Z,96632.59
2019-05-19T20:59:25.304Z,96632.02
2019-05-19T21:01:56.351Z,96630.12
2019-05-19T21:04:27.456Z,96631.25
2019-05-19T21:06:58.550Z,96631.23
2019-05-19T21:09:29.631Z,96627.58
2019-05-19T21:12:00.920Z,96625.37
2019-05-19T21:14:32.115Z,96628.99
2019-05-19T21:17:03.111Z,96622.48
2019-05-19T21:19:33.107Z,96613.82
2019-05-19T21:22:04.282Z,96615.66
2019-05-19T21:24:35.238Z,96620.81
2019-05-19T21:27:06.502Z,96626.48
2019-05-19T21:29:37.436Z,96628.62
2019-05-19T21:32:08.616Z,96632.70
2019-05-19T21:34:39.584Z,96622.94
2019-05-19T21:37:10.859Z,96621.98
2019-05-19T21:39:41.915Z,96622.25
2019-05-19T21:42:15.908Z,96629.41
2019-05-19T21:44:46.911Z,96620.83
2019-05-19T21:47:18.335Z,96620.49
2019-05-19T21:49:49.331Z,96615.59
2019-05-19T21:52:20.534Z,96617.02
2019-05-19T21:54:51.782Z,96620.10
2019-05-19T21:57:21.975Z,96619.98
2019-05-19T21:59:53.323Z,96620.72
2019-05-19T22:02:24.458Z,96617.50
2019-05-19T22:04:55.709Z,96620.03
2019-05-19T22:07:28.422Z,96615.16
2019-05-19T22:09:59.602Z,96621.22
2019-05-19T22:12:30.728Z,96620.67
2019-05-19T22:15:02.058Z,96621.61
2019-05-19T22:17:33.134Z,96624.83
2019-05-19T22:20:06.358Z,96623.63
2019-05-19T22:22:37.413Z,96621.27
2019-05-19T22:25:08.748Z,96622.70
2019-05-19T22:27:39.814Z,96628.05
2019-05-19T22:30:10.132Z,96624.02
2019-05-19T22:32:41.353Z,96631.38
2019-05-19T22:35:14.017Z,96629.86
2019-05-19T22:37:45.102Z,96631.73
2019-05-19T22:40:16.268Z,96626.75
2019-05-19T22:42:47.447Z,96626.38
2019-05-19T22:45:18.504Z,96627.84
2019-05-19T22:47:49.698Z,96618.91
2019-05-19T22:50:20.761Z,96623.29
2019-05-19T22:52:52.103Z,96628.17
2019-05-19T22:55:23.184Z,96623.05
2019-05-19T22:57:54.354Z,96621.98
2019-05-19T23:00:26.564Z,96617.96
2019-05-19T23:02:56.726Z,96620.07
2019-05-19T23:05:27.900Z,96628.17
2019-05-19T23:07:58.951Z,96627.45
2019-05-19T23:10:30.407Z,96628.30
2019-05-19T23:13:01.277Z,96618.78
2019-05-19T23:15:32.628Z,96617.55
2019-05-19T23:18:03.719Z,96615.86
2019-05-19T23:20:34.887Z,96623.92
2019-05-19T23:23:05.926Z,96622.64
2019-05-19T23:25:37.311Z,96610.52
2019-05-19T23:28:08.380Z,96608.73
2019-05-19T23:30:39.552Z,96605.06
2019-05-19T23:33:10.473Z,96605.56
2019-05-19T23:35:40.647Z,96603.78
2019-05-19T23:38:11.912Z,96605.70
2019-05-19T23:40:43.378Z,96600.64
2019-05-19T23:43:14.814Z,96609.57
2019-05-19T23:45:45.896Z,96611.34
2019-05-19T23:48:17.159Z,96612.52
2019-05-19T23:50:48.171Z,96610.63
2019-05-19T23:53:19.265Z,96608.84
2019-05-19T23:55:50.278Z,96605.17
2019-05-19T23:58:22.017Z,96605.76
